Time;durP1;ratioP1;P1;durP2;ratioP2;P2;SDS_P1;SDS_P2;PMS_P1;PMS_P2;Temp;Humidity;BMP_temperature;BMP_pressure;BME280_temperature;BME280_humidity;BME280_pressure;Samples;Min_cycle;Max_cycle;Signal;HPM_P1;HPM_P2
2023/07/06 00:02:13;;;;;;;13.60;11.30;;;;;;;21.97;74.61;99750.17;107940;1257;71544;-74
2023/07/06 00:04:41;;;;;;;16.30;12.00;;;;;;;21.94;74.68;99753.36;107911;1253;59470;-73
2023/07/06 00:07:08;;;;;;;14.30;12.00;;;;;;;21.92;74.78;99752.95;107809;1258;59514;-71
2023/07/06 00:09:36;;;;;;;13.40;11.90;;;;;;;21.88;74.86;99750.27;106381;1253;71809;-71
2023/07/06 00:12:04;;;;;;;19.10;11.50;;;;;;;21.89;75.03;99753.23;107774;1254;68863;-73
2023/07/06 00:14:32;;;;;;;16.60;12.10;;;;;;;21.92;75.51;99753.41;108276;1254;71506;-75
2023/07/06 00:17:12;;;;;;;16.60;12.50;;;;;;;21.90;76.05;99750.84;106733;1257;59821;-76
2023/07/06 00:19:40;;;;;;;18.10;11.90;;;;;;;21.87;76.02;99746.42;105733;1254;59647;-74
2023/07/06 00:22:09;;;;;;;19.50;13.60;;;;;;;21.84;75.78;99747.65;105915;1253;73328;-74
2023/07/06 00:24:37;;;;;;;17.90;12.20;;;;;;;21.80;75.62;99746.02;105880;1254;70368;-74
2023/07/06 00:27:05;;;;;;;12.20;10.90;;;;;;;21.85;75.53;99745.19;105847;1254;72381;-75
2023/07/06 00:29:38;;;;;;;16.40;12.80;;;;;;;21.88;75.54;99745.89;105837;1254;60120;-74
2023/07/06 00:32:27;;;;;;;17.20;12.20;;;;;;;21.84;75.83;99744.95;105797;1253;62430;-73
2023/07/06 00:34:55;;;;;;;18.30;12.50;;;;;;;21.78;75.85;99748.14;106061;1257;73048;-74
2023/07/06 00:37:23;;;;;;;17.20;12.20;;;;;;;21.73;76.07;99749.17;105800;1254;72200;-72
2023/07/06 00:39:51;;;;;;;17.90;12.20;;;;;;;21.74;76.20;99753.31;107693;1257;71414;-72
2023/07/06 00:42:22;;;;;;;16.50;12.40;;;;;;;21.76;76.29;99756.70;108616;1255;59036;-75
2023/07/06 00:44:57;;;;;;;15.60;12.50;;;;;;;21.74;76.39;99755.75;109144;1253;59106;-74
2023/07/06 00:48:01;;;;;;;16.40;12.70;;;;;;;21.70;76.32;99754.10;108340;1254;71189;-75
2023/07/06 00:50:29;;;;;;;15.50;13.10;;;;;;;21.66;76.49;99752.82;105682;1260;70445;-74
2023/07/06 00:53:02;;;;;;;15.10;11.70;;;;;;;21.64;76.44;99749.38;105870;1254;73218;-77
2023/07/06 00:55:32;;;;;;;13.70;11.50;;;;;;;21.69;76.59;99750.61;105957;1254;60589;-77
2023/07/06 00:58:22;;;;;;;18.50;12.60;;;;;;;21.77;76.79;99747.26;106065;1254;59675;-75
2023/07/06 01:00:51;;;;;;;13.30;11.80;;;;;;;21.76;77.02;99744.61;105975;1254;73345;-76
2023/07/06 01:03:19;;;;;;;15.80;12.90;;;;;;;21.73;77.14;99744.85;105848;1254;69940;-76
2023/07/06 01:05:48;;;;;;;15.70;12.50;;;;;;;21.70;77.24;99745.62;105929;1253;72613;-76
2023/07/06 01:08:18;;;;;;;16.30;12.10;;;;;;;21.76;77.53;99746.45;105769;1254;61816;-77
2023/07/06 01:10:46;;;;;;;16.70;12.50;;;;;;;21.82;77.47;99743.02;105945;1253;60235;-77
2023/07/06 01:13:14;;;;;;;13.90;12.40;;;;;;;21.80;77.20;99735.86;106271;1260;71861;-76
2023/07/06 01:15:49;;;;;;;14.00;11.80;;;;;;;21.78;77.07;99738.84;109156;1253;68753;-75
2023/07/06 01:18:26;;;;;;;15.60;11.70;;;;;;;21.75;77.11;99740.14;106056;1254;71092;-75
2023/07/06 01:21:09;;;;;;;15.50;12.40;;;;;;;21.74;77.17;99740.65;105771;1258;60459;-75
2023/07/06 01:23:46;;;;;;;12.90;11.60;;;;;;;21.78;77.14;99741.98;106032;1253;59733;-75
2023/07/06 01:26:38;;;;;;;13.70;12.30;;;;;;;21.74;77.09;99742.78;105915;1257;72849;-76
2023/07/06 01:29:43;;;;;;;14.60;12.20;;;;;;;21.67;77.38;99741.82;105824;1253;70008;-76
2023/07/06 01:32:14;;;;;;;13.90;11.50;;;;;;;21.62;77.65;99735.94;107111;1259;73488;-74
2023/07/06 01:34:53;;;;;;;17.70;11.30;;;;;;;21.65;77.54;99735.08;106665;1254;60163;-73
2023/07/06 01:37:29;;;;;;;19.70;13.20;;;;;;;21.65;77.67;99733.41;106003;1253;59654;-74
2023/07/06 01:39:57;;;;;;;15.70;12.90;;;;;;;21.60;77.92;99735.80;105848;1258;73358;-72
2023/07/06 01:42:30;;;;;;;14.20;11.90;;;;;;;21.54;78.15;99734.55;106514;1254;69793;-73
2023/07/06 01:45:08;;;;;;;17.20;12.60;;;;;;;21.54;78.33;99734.82;108268;1253;71127;-74
2023/07/06 01:47:40;;;;;;;15.70;12.50;;;;;;;21.58;78.26;99736.48;106964;1256;60515;-74
2023/07/06 01:50:09;;;;;;;12.80;11.40;;;;;;;21.56;78.17;99737.89;105595;1253;60448;-72
2023/07/06 01:52:36;;;;;;;15.60;13.00;;;;;;;21.50;78.29;99738.10;105719;1260;71649;-74
2023/07/06 01:55:09;;;;;;;19.80;13.80;;;;;;;21.47;78.39;99737.27;105913;1253;69632;-74
2023/07/06 01:57:59;;;;;;;15.20;11.30;;;;;;;21.51;78.55;99730.42;105939;1257;72954;-78
2023/07/06 02:00:30;;;;;;;14.40;12.20;;;;;;;21.54;78.68;99724.49;105943;1259;60862;-77
2023/07/06 02:02:59;;;;;;;17.60;12.20;;;;;;;21.50;78.77;99727.39;106132;1254;60540;-76
2023/07/06 02:05:27;;;;;;;15.10;12.60;;;;;;;21.41;78.90;99729.91;105972;1253;72619;-75
2023/07/06 02:07:54;;;;;;;19.80;12.30;;;;;;;21.34;79.02;99734.98;105775;1253;70352;-75
2023/07/06 02:10:22;;;;;;;13.10;11.20;;;;;;;21.35;79.38;99730.52;105763;1254;72539;-76
2023/07/06 02:12:50;;;;;;;13.80;12.40;;;;;;;21.38;79.55;99726.10;106606;1253;60549;-76
2023/07/06 02:15:21;;;;;;;16.10;13.40;;;;;;;21.35;79.76;99724.20;108960;1253;58797;-77
2023/07/06 02:17:50;;;;;;;15.00;12.60;;;;;;;21.32;80.11;99724.73;107187;1253;72514;-74
2023/07/06 02:20:19;;;;;;;14.80;12.50;;;;;;;21.30;80.10;99723.71;106081;1258;70296;-75
2023/07/06 02:22:47;;;;;;;16.30;12.90;;;;;;;21.34;79.90;99721.69;105857;1251;72658;-74
2023/07/06 02:25:14;;;;;;;13.60;12.10;;;;;;;21.36;80.00;99722.77;106251;1253;60584;-77
2023/07/06 02:27:42;;;;;;;15.30;12.80;;;;;;;21.33;80.17;99721.88;105698;1253;60601;-76
2023/07/06 02:30:10;;;;;;;15.30;13.20;;;;;;;21.29;80.45;99723.52;105774;1254;73910;-76
2023/07/06 02:32:39;;;;;;;14.70;12.20;;;;;;;21.29;80.58;99721.26;105801;1253;70578;-74
2023/07/06 02:35:10;;;;;;;16.30;12.90;;;;;;;21.34;80.35;99720.35;106051;1253;71691;-75
2023/07/06 02:37:38;;;;;;;15.20;12.00;;;;;;;21.36;80.61;99717.15;106019;1257;60328;-75
2023/07/06 02:40:08;;;;;;;15.00;13.40;;;;;;;21.34;80.71;99716.83;106120;1257;60813;-75
2023/07/06 02:42:35;;;;;;;14.70;13.10;;;;;;;21.33;80.81;99714.44;106820;1253;73105;-76
2023/07/06 02:45:07;;;;;;;17.20;12.50;;;;;;;21.37;80.96;99714.30;109360;1253;69226;-74
2023/07/06 02:47:36;;;;;;;15.70;13.20;;;;;;;21.50;80.62;99715.39;107773;1254;72597;-73
2023/07/06 02:50:04;;;;;;;14.80;12.40;;;;;;;21.63;80.83;99717.20;106466;1259;60441;-77
2023/07/06 02:52:32;;;;;;;14.20;12.70;;;;;;;21.69;81.00;99717.05;106211;1253;61212;-76
2023/07/06 02:55:00;;;;;;;16.80;13.40;;;;;;;21.71;80.87;99715.78;106525;1254;72780;-75
2023/07/06 02:57:27;;;;;;;16.00;12.20;;;;;;;21.71;80.58;99719.19;107951;1258;69110;-76
2023/07/06 02:59:56;;;;;;;21.00;12.80;;;;;;;21.75;80.32;99716.13;107538;1254;71641;-75
2023/07/06 03:02:25;;;;;;;13.40;11.50;;;;;;;21.82;80.52;99712.95;107635;1254;60330;-75
2023/07/06 03:04:53;;;;;;;16.40;14.30;;;;;;;21.83;80.38;99714.85;108650;1253;59063;-72
2023/07/06 03:07:23;;;;;;;15.10;12.80;;;;;;;21.83;80.65;99716.63;107387;1256;73273;-75
2023/07/06 03:09:50;;;;;;;16.80;13.00;;;;;;;21.85;80.65;99716.79;106174;1253;68753;-75
2023/07/06 03:12:19;;;;;;;16.40;11.60;;;;;;;21.95;80.85;99716.44;107542;1253;71364;-74
2023/07/06 03:14:47;;;;;;;15.00;13.30;;;;;;;22.05;80.35;99713.14;108497;1254;60447;-77
2023/07/06 03:17:14;;;;;;;17.20;13.40;;;;;;;22.08;80.49;99711.52;107952;1257;59274;-74
2023/07/06 03:19:42;;;;;;;15.40;12.80;;;;;;;22.10;80.74;99713.18;105794;1254;72575;-74
2023/07/06 03:22:11;;;;;;;16.30;13.30;;;;;;;22.10;80.70;99712.20;106065;1257;67790;-73
2023/07/06 03:24:38;;;;;;;15.10;12.80;;;;;;;22.07;80.26;99713.70;106075;1257;72718;-75
2023/07/06 03:27:06;;;;;;;17.10;12.90;;;;;;;22.10;80.48;99712.26;105876;1254;61937;-76
2023/07/06 03:29:35;;;;;;;15.20;13.20;;;;;;;22.13;80.19;99712.40;105893;1253;60986;-76
2023/07/06 03:32:04;;;;;;;17.00;13.70;;;;;;;22.15;80.59;99712.38;105838;1258;75791;-76
2023/07/06 03:34:33;;;;;;;17.30;13.70;;;;;;;22.16;80.52;99710.58;105961;1253;69138;-74
2023/07/06 03:37:04;;;;;;;16.40;14.60;;;;;;;22.19;80.38;99707.59;105665;1259;71459;-72
2023/07/06 03:39:33;;;;;;;15.70;14.00;;;;;;;22.19;79.85;99707.09;105938;1260;60803;-74
2023/07/06 03:42:01;;;;;;;14.60;12.80;;;;;;;22.20;79.71;99707.07;106080;1254;60487;-76
2023/07/06 03:44:29;;;;;;;16.00;14.30;;;;;;;22.20;79.68;99704.25;107335;1253;73848;-76
2023/07/06 03:46:58;;;;;;;15.20;13.60;;;;;;;22.17;80.35;99707.39;107105;1253;70262;-75
2023/07/06 03:49:25;;;;;;;18.00;13.80;;;;;;;22.17;80.99;99701.52;105888;1257;71728;-77
2023/07/06 03:51:53;;;;;;;16.90;13.20;;;;;;;22.21;81.43;99692.14;105661;1253;60647;-74
2023/07/06 03:54:21;;;;;;;17.20;14.00;;;;;;;22.26;80.78;99684.95;105818;1254;60436;-72
2023/07/06 03:56:50;;;;;;;14.80;13.30;;;;;;;22.27;81.17;99677.00;105759;1258;73871;-74
2023/07/06 03:59:18;;;;;;;16.00;13.50;;;;;;;22.27;81.07;99676.04;105879;1257;72424;-76
2023/07/06 04:01:46;;;;;;;40.50;15.60;;;;;;;22.27;80.95;99679.83;105851;1254;71366;-72
2023/07/06 04:04:16;;;;;;;17.90;15.40;;;;;;;22.25;80.64;99681.04;105610;1254;60430;-74
2023/07/06 04:06:43;;;;;;;22.40;14.90;;;;;;;22.27;80.32;99674.67;105806;1254;60487;-74
2023/07/06 04:09:11;;;;;;;18.10;14.10;;;;;;;22.33;80.52;99660.61;105758;1254;72636;-74
2023/07/06 04:11:39;;;;;;;19.70;14.30;;;;;;;22.40;80.68;99655.23;105830;1260;69472;-74
2023/07/06 04:14:07;;;;;;;19.30;15.40;;;;;;;22.41;80.37;99650.21;107667;1256;71288;-78
2023/07/06 04:16:34;;;;;;;17.70;15.30;;;;;;;22.43;80.16;99654.36;108385;1260;61128;-78
2023/07/06 04:19:02;;;;;;;19.50;15.50;;;;;;;22.45;79.90;99654.66;105507;1261;60419;-74
2023/07/06 04:21:30;;;;;;;19.40;15.00;;;;;;;22.47;80.29;99653.87;105713;1254;73904;-75
2023/07/06 04:23:59;;;;;;;17.00;15.10;;;;;;;22.58;80.30;99651.09;105836;1258;68907;-74
2023/07/06 04:26:26;;;;;;;21.50;14.40;;;;;;;22.68;80.60;99644.26;105877;1259;72476;-78
2023/07/06 04:28:54;;;;;;;19.50;14.90;;;;;;;22.75;80.42;99635.20;105857;1253;60557;-78
2023/07/06 04:31:22;;;;;;;19.40;15.40;;;;;;;22.86;80.11;99634.59;105864;1253;60476;-76
2023/07/06 04:33:49;;;;;;;19.60;15.50;;;;;;;22.90;79.67;99627.70;105777;1253;72648;-79
2023/07/06 04:36:19;;;;;;;20.80;15.70;;;;;;;22.97;79.49;99632.40;105575;1256;71817;-75
2023/07/06 04:38:47;;;;;;;19.60;14.30;;;;;;;23.09;78.89;99629.25;105870;1253;72656;-76
2023/07/06 04:41:15;;;;;;;21.20;15.50;;;;;;;23.21;78.35;99630.03;105956;1253;60461;-73
2023/07/06 04:43:42;;;;;;;17.10;14.70;;;;;;;23.27;78.35;99632.76;107569;1254;61971;-75
2023/07/06 04:46:10;;;;;;;16.90;14.90;;;;;;;23.33;77.96;99634.41;108985;1254;72758;-74
2023/07/06 04:48:37;;;;;;;16.90;14.90;;;;;;;23.42;78.03;99641.21;105772;1258;70145;-76
2023/07/06 04:51:05;;;;;;;17.40;14.00;;;;;;;23.51;78.08;99640.33;105810;1258;71507;-76
2023/07/06 04:53:32;;;;;;;17.20;13.20;;;;;;;23.65;78.38;99643.49;105885;1258;60483;-74
2023/07/06 04:56:00;;;;;;;17.70;14.50;;;;;;;23.73;77.56;99638.84;105785;1258;60643;-74
2023/07/06 04:58:28;;;;;;;18.70;13.80;;;;;;;23.71;77.64;99644.52;105816;1253;74127;-77
2023/07/06 05:00:57;;;;;;;17.90;14.90;;;;;;;23.66;77.29;99645.95;105882;1257;72153;-75
2023/07/06 05:03:25;;;;;;;20.70;14.30;;;;;;;23.60;77.86;99644.48;105857;1254;72814;-76
2023/07/06 05:05:53;;;;;;;20.30;14.50;;;;;;;23.59;78.62;99641.92;105801;1256;61719;-76
2023/07/06 05:08:22;;;;;;;20.30;14.10;;;;;;;23.67;78.85;99636.84;105903;1258;60502;-73
2023/07/06 05:10:51;;;;;;;18.10;14.10;;;;;;;23.76;78.91;99637.80;106955;1253;72609;-75
2023/07/06 05:13:22;;;;;;;17.70;14.40;;;;;;;23.79;78.52;99638.60;107254;1253;69060;-75
2023/07/06 05:15:51;;;;;;;17.90;15.20;;;;;;;23.80;78.70;99639.70;108614;1253;71210;-76
2023/07/06 05:18:19;;;;;;;16.80;15.00;;;;;;;23.83;78.62;99638.70;105823;1259;60434;-75
2023/07/06 05:20:49;;;;;;;19.80;15.20;;;;;;;23.87;78.71;99635.81;105645;1260;60387;-76
2023/07/06 05:23:18;;;;;;;16.00;14.10;;;;;;;24.00;78.08;99638.35;105940;1258;73196;-78
2023/07/06 05:25:46;;;;;;;19.00;14.60;;;;;;;24.11;77.66;99641.64;105794;1258;68845;-77
2023/07/06 05:28:19;;;;;;;16.20;14.70;;;;;;;24.17;76.79;99646.73;105637;1253;71227;-75
2023/07/06 05:30:48;;;;;;;16.80;14.30;;;;;;;24.21;76.97;99648.17;105910;1255;60596;-75
2023/07/06 05:33:17;;;;;;;15.70;14.10;;;;;;;24.25;76.20;99646.46;106176;1253;60535;-77
2023/07/06 05:35:45;;;;;;;17.80;15.20;;;;;;;24.25;75.61;99643.37;105607;1253;74057;-77
2023/07/06 05:38:14;;;;;;;15.70;14.10;;;;;;;24.26;75.71;99641.04;106041;1258;69745;-86
2023/07/06 05:40:43;;;;;;;19.00;15.00;;;;;;;24.32;76.04;99640.81;106057;1253;71468;-84
2023/07/06 05:43:11;;;;;;;15.10;13.60;;;;;;;24.40;76.23;99640.88;107278;1251;60383;-83
2023/07/06 05:45:38;;;;;;;17.60;14.40;;;;;;;24.43;75.91;99639.04;109259;1253;58880;-84
2023/07/06 05:48:05;;;;;;;16.70;14.10;;;;;;;24.45;75.76;99643.12;106333;1253;72588;-83
2023/07/06 05:50:33;;;;;;;19.70;14.80;;;;;;;24.48;75.68;99645.64;106034;1257;69297;-82
2023/07/06 05:53:02;;;;;;;17.70;15.30;;;;;;;24.49;75.54;99644.61;106163;1254;71466;-83
2023/07/06 05:55:30;;;;;;;18.10;14.80;;;;;;;24.52;75.01;99643.99;106444;1253;60445;-85
2023/07/06 05:57:57;;;;;;;20.90;14.70;;;;;;;24.62;75.00;99639.88;106865;1251;60410;-82
2023/07/06 06:00:25;;;;;;;20.30;15.90;;;;;;;24.74;75.10;99633.58;107298;1254;73939;-81
2023/07/06 06:02:53;;;;;;;18.70;16.60;;;;;;;24.85;75.64;99632.16;107961;1251;68742;-81
2023/07/06 06:05:20;;;;;;;20.30;16.20;;;;;;;24.98;75.84;99632.50;107629;1253;71966;-81
2023/07/06 06:07:48;;;;;;;19.50;16.90;;;;;;;25.13;74.71;99629.52;107276;1254;60538;-80
2023/07/06 06:10:15;;;;;;;18.50;16.50;;;;;;;25.27;73.94;99630.12;107290;1251;60381;-81
2023/07/06 06:12:44;;;;;;;21.00;15.80;;;;;;;25.42;73.67;99633.09;108777;1252;72266;-81
2023/07/06 06:15:12;;;;;;;17.70;15.60;;;;;;;25.60;73.39;99631.92;108170;1258;68798;-78
2023/07/06 06:17:40;;;;;;;23.70;15.60;;;;;;;25.82;72.63;99631.95;106972;1253;71821;-77
2023/07/06 06:20:11;;;;;;;17.90;16.20;;;;;;;26.02;72.08;99633.20;106480;1251;60857;-78
2023/07/06 06:22:40;;;;;;;18.60;15.90;;;;;;;26.17;71.15;99630.74;106987;1254;60312;-83
2023/07/06 06:25:08;;;;;;;24.00;16.70;;;;;;;26.26;70.66;99631.77;106860;1251;72768;-82
2023/07/06 06:27:35;;;;;;;23.80;16.20;;;;;;;26.35;70.06;99632.46;106413;1251;70158;-80
2023/07/06 06:30:05;;;;;;;20.20;15.00;;;;;;;26.45;70.06;99636.48;107213;1253;72407;-80
2023/07/06 06:32:34;;;;;;;17.50;14.30;;;;;;;26.57;69.87;99638.27;107531;1253;59136;-82
2023/07/06 06:35:03;;;;;;;16.90;14.80;;;;;;;26.70;68.84;99641.94;106954;1253;61003;-81
2023/07/06 06:37:30;;;;;;;19.20;15.00;;;;;;;26.79;68.54;99641.70;106420;1253;73843;-78
2023/07/06 06:39:59;;;;;;;20.70;15.10;;;;;;;26.89;68.25;99641.27;106452;1257;69107;-81
2023/07/06 06:42:28;;;;;;;21.50;16.00;;;;;;;26.98;67.93;99638.73;107685;1252;71447;-81
2023/07/06 06:44:57;;;;;;;26.00;15.70;;;;;;;27.10;67.96;99634.05;109267;1251;58882;-81
2023/07/06 06:47:25;;;;;;;20.80;14.40;;;;;;;27.22;67.70;99641.73;107788;1253;60537;-80
2023/07/06 06:49:53;;;;;;;20.70;15.30;;;;;;;27.36;66.90;99644.13;106416;1253;72686;-79
2023/07/06 06:52:20;;;;;;;20.70;16.60;;;;;;;27.45;66.46;99644.73;106327;1252;69289;-81
2023/07/06 06:54:50;;;;;;;16.90;14.80;;;;;;;27.49;66.13;99644.32;106530;1258;71359;-81
2023/07/06 06:57:20;;;;;;;17.70;14.80;;;;;;;27.53;65.93;99644.14;106435;1256;60371;-81
2023/07/06 06:59:48;;;;;;;17.70;14.40;;;;;;;27.54;65.86;99641.23;107051;1251;60475;-80
2023/07/06 07:02:16;;;;;;;16.10;14.00;;;;;;;27.55;65.83;99639.04;108995;1251;72675;-79
2023/07/06 07:04:43;;;;;;;15.80;14.30;;;;;;;27.58;66.13;99636.19;109493;1251;71573;-80
2023/07/06 07:07:11;;;;;;;16.50;13.90;;;;;;;27.63;65.76;99637.80;109266;1253;71224;-80
2023/07/06 07:09:38;;;;;;;18.30;14.10;;;;;;;27.67;65.47;99640.86;109273;1251;58613;-78
2023/07/06 07:12:06;;;;;;;15.40;13.80;;;;;;;27.69;65.68;99645.93;109431;1251;58756;-79
2023/07/06 07:14:34;;;;;;;15.00;13.60;;;;;;;27.72;65.89;99645.75;109147;1252;72943;-83
2023/07/06 07:17:03;;;;;;;19.30;14.40;;;;;;;27.76;65.70;99643.21;109610;1252;71292;-80
2023/07/06 07:19:30;;;;;;;16.50;14.00;;;;;;;27.84;65.45;99647.30;109496;1252;71056;-81
2023/07/06 07:22:00;;;;;;;16.30;14.80;;;;;;;27.89;65.52;99645.75;109384;1251;61281;-79
2023/07/06 07:24:33;;;;;;;18.60;16.80;;;;;;;27.94;65.22;99647.36;109415;1252;61112;-80
2023/07/06 07:27:01;;;;;;;17.50;15.30;;;;;;;27.98;64.92;99645.85;109392;1253;72582;-79
2023/07/06 07:29:28;;;;;;;18.70;14.90;;;;;;;28.00;64.78;99644.52;109477;1252;69150;-82
2023/07/06 07:31:56;;;;;;;18.80;15.60;;;;;;;28.04;64.80;99647.16;109189;1253;74374;-80
2023/07/06 07:34:27;;;;;;;16.50;14.80;;;;;;;28.10;64.52;99648.37;109285;1251;59344;-83
2023/07/06 07:36:57;;;;;;;19.00;14.20;;;;;;;28.15;63.86;99650.23;109265;1251;60559;-82
2023/07/06 07:39:26;;;;;;;16.40;14.60;;;;;;;28.17;63.82;99650.10;109315;1253;72861;-80
2023/07/06 07:41:54;;;;;;;17.30;14.90;;;;;;;28.23;63.94;99649.62;108571;1254;69212;-81
2023/07/06 07:44:23;;;;;;;15.40;13.80;;;;;;;28.28;63.57;99650.05;107103;1253;72614;-79
2023/07/06 07:46:50;;;;;;;14.60;13.20;;;;;;;28.36;63.17;99650.95;109290;1251;58817;-79
2023/07/06 07:49:18;;;;;;;15.60;14.00;;;;;;;28.47;62.58;99650.47;106447;1257;60560;-81
2023/07/06 07:51:46;;;;;;;15.90;14.30;;;;;;;28.63;62.76;99653.23;106013;1257;72391;-80
2023/07/06 07:54:13;;;;;;;14.70;13.40;;;;;;;28.83;62.01;99653.77;106150;1251;70149;-81
2023/07/06 07:56:42;;;;;;;13.60;12.10;;;;;;;28.98;61.45;99656.75;106143;1254;72056;-79
2023/07/06 07:59:10;;;;;;;16.90;11.80;;;;;;;29.16;60.49;99660.48;106142;1257;60569;-82
2023/07/06 08:01:42;;;;;;;13.40;12.10;;;;;;;29.37;58.89;99660.21;106152;1253;60384;-82
2023/07/06 08:04:10;;;;;;;12.60;11.10;;;;;;;29.50;57.29;99657.35;106072;1253;72490;-79
2023/07/06 08:06:38;;;;;;;12.90;11.70;;;;;;;29.47;57.12;99663.61;105964;1259;70803;-80
2023/07/06 08:09:07;;;;;;;13.60;12.30;;;;;;;29.53;56.75;99659.98;106378;1258;72696;-79
2023/07/06 08:11:38;;;;;;;14.00;12.60;;;;;;;29.66;56.60;99661.38;106454;1256;60438;-75
2023/07/06 08:14:08;;;;;;;12.40;11.00;;;;;;;29.72;56.75;99656.59;106860;1253;60332;-78
2023/07/06 08:16:40;;;;;;;11.40;10.30;;;;;;;29.78;55.98;99655.41;108249;1253;73864;-78
2023/07/06 08:19:08;;;;;;;12.20;10.80;;;;;;;29.87;55.36;99657.63;107077;1257;69029;-78
2023/07/06 08:21:55;;;;;;;10.40;9.30;;;;;;;29.93;54.02;99653.36;106447;1255;71536;-79
2023/07/06 08:24:38;;;;;;;11.60;10.40;;;;;;;30.01;54.28;99654.98;106266;1253;60458;-81
2023/07/06 08:27:05;;;;;;;11.10;9.90;;;;;;;30.11;54.14;99654.21;106679;1251;60540;-78
2023/07/06 08:29:33;;;;;;;12.90;11.70;;;;;;;30.33;53.68;99656.91;106641;1257;74176;-75
2023/07/06 08:32:03;;;;;;;12.70;11.40;;;;;;;30.54;53.87;99657.46;106253;1258;69082;-79
2023/07/06 08:34:31;;;;;;;12.50;11.30;;;;;;;30.80;53.51;99658.90;106211;1257;72513;-78
2023/07/06 08:36:59;;;;;;;12.50;11.30;;;;;;;31.04;53.02;99659.02;106138;1253;60374;-79
2023/07/06 08:39:27;;;;;;;12.20;11.10;;;;;;;31.23;51.66;99653.02;106396;1253;60345;-74
2023/07/06 08:41:55;;;;;;;11.00;10.00;;;;;;;31.39;51.39;99650.84;106460;1251;74558;-72
2023/07/06 08:44:25;;;;;;;11.80;10.70;;;;;;;31.47;51.02;99651.58;108566;1252;70668;-75
2023/07/06 08:46:55;;;;;;;11.60;10.40;;;;;;;31.55;50.22;99652.27;106432;1253;72527;-74
2023/07/06 08:49:28;;;;;;;12.00;10.70;;;;;;;31.64;49.92;99648.40;105764;1260;62072;-69
2023/07/06 08:52:05;;;;;;;12.10;10.90;;;;;;;31.64;49.80;99644.65;105832;1253;60595;-73
2023/07/06 08:54:38;;;;;;;12.60;11.40;;;;;;;31.68;50.14;99640.59;106076;1258;74113;-70
2023/07/06 08:57:10;;;;;;;;;;;;;;;31.81;50.22;99639.52;105981;1258;68865;-69
2023/07/06 08:59:40;;;;;;;12.60;11.50;;;;;;;32.04;50.66;99638.42;105885;1253;71443;-71
2023/07/06 09:02:12;;;;;;;11.40;10.20;;;;;;;32.23;50.72;99634.54;105809;1258;60519;-71
2023/07/06 09:04:40;;;;;;;12.00;10.90;;;;;;;32.35;49.90;99633.94;105490;1251;60540;-71
2023/07/06 09:07:13;;;;;;;12.00;10.70;;;;;;;32.42;48.95;99635.33;105642;1257;74087;-73
2023/07/06 09:09:46;;;;;;;11.20;10.20;;;;;;;32.42;48.78;99628.41;105835;1253;70273;-72
2023/07/06 09:12:36;;;;;;;9.90;9.10;;;;;;;32.45;48.06;99632.66;107707;1251;72811;-70
2023/07/06 09:15:04;;;;;;;10.00;9.20;;;;;;;32.50;47.85;99626.21;106308;1256;60592;-70
2023/07/06 09:17:32;;;;;;;10.50;9.50;;;;;;;32.62;46.89;99630.63;105858;1257;60348;-72
2023/07/06 09:20:03;;;;;;;10.30;9.40;;;;;;;32.83;46.60;99626.96;105864;1253;73858;-72
2023/07/06 09:22:31;;;;;;;10.00;9.10;;;;;;;33.14;46.97;99621.92;105847;1252;69649;-71
2023/07/06 09:25:05;;;;;;;10.60;9.50;;;;;;;33.43;46.03;99622.37;105965;1253;72437;-70
2023/07/06 09:27:32;;;;;;;9.10;8.40;;;;;;;33.80;45.44;99623.73;105877;1257;60537;-75
2023/07/06 09:30:03;;;;;;;11.40;10.00;;;;;;;34.27;44.51;99622.79;105950;1252;60512;-73
2023/07/06 09:32:32;;;;;;;9.70;8.70;;;;;;;34.80;43.96;99628.13;105963;1253;73888;-73
2023/07/06 09:35:12;;;;;;;10.40;9.30;;;;;;;35.27;43.19;99628.08;106030;1253;61699;-73
2023/07/06 09:37:47;;;;;;;11.10;10.00;;;;;;;35.75;42.29;99627.39;105899;1256;62638;-75
2023/07/06 09:40:14;;;;;;;10.60;9.60;;;;;;;36.24;41.89;99621.40;107982;1253;59304;-72
2023/07/06 09:42:43;;;;;;;10.70;9.70;;;;;;;36.68;42.03;99619.11;107265;1253;60573;-71
2023/07/06 09:45:19;;;;;;;10.20;9.40;;;;;;;37.17;41.50;99617.50;106045;1253;64983;-72
2023/07/06 09:47:50;;;;;;;10.20;9.30;;;;;;;37.76;40.52;99616.42;105701;1253;216754;-71
2023/07/06 09:51:14;;;;;;;9.40;8.60;;;;;;;38.50;39.26;99611.14;102804;1292;600281;-73
2023/07/06 09:53:55;;;;;;;15.80;8.00;;;;;;;38.93;38.20;99613.66;104876;1272;59239;-73
2023/07/06 09:56:22;;;;;;;9.50;8.10;;;;;;;39.31;36.90;99615.84;104946;1266;59293;-73
2023/07/06 09:58:51;;;;;;;9.50;8.70;;;;;;;39.60;36.72;99614.15;104962;1267;63499;-69
2023/07/06 10:01:28;;;;;;;8.70;7.90;;;;;;;39.87;35.68;99616.67;105071;1267;60121;-74
2023/07/06 10:04:01;;;;;;;8.70;7.80;;;;;;;39.91;35.01;99618.29;104798;1272;219971;-70
2023/07/06 10:06:57;;;;;;;8.00;7.20;;;;;;;40.03;34.99;99619.13;104936;1266;59311;-73
2023/07/06 10:09:27;;;;;;;7.80;7.00;;;;;;;40.24;34.76;99617.65;105867;1266;59573;-70
2023/07/06 10:11:56;;;;;;;8.30;7.60;;;;;;;40.38;34.23;99612.89;106886;1266;62743;-72
2023/07/06 10:14:28;;;;;;;7.30;6.70;;;;;;;40.56;34.04;99611.83;105629;1262;60099;-72
2023/07/06 10:17:34;;;;;;;7.90;7.30;;;;;;;40.78;33.68;99612.80;105551;1260;63981;-71
2023/07/06 10:20:05;;;;;;;7.50;6.90;;;;;;;41.06;33.16;99608.27;105542;1263;59618;-71
2023/07/06 10:23:11;;;;;;;8.90;8.10;;;;;;;41.27;32.81;99605.71;105511;1260;59628;-69
2023/07/06 10:26:18;;;;;;;7.20;6.60;;;;;;;41.42;32.51;99605.57;105641;1260;63316;-68
2023/07/06 10:29:04;;;;;;;7.40;6.70;;;;;;;41.49;32.13;99600.95;105534;1260;62229;-71
2023/07/06 10:31:42;;;;;;;8.30;7.50;;;;;;;41.51;31.83;99598.34;105449;1260;62507;-71
2023/07/06 10:34:38;;;;;;;8.50;7.90;;;;;;;41.37;32.03;99597.70;105563;1259;59713;-72
2023/07/06 10:37:06;;;;;;;7.60;6.90;;;;;;;41.24;31.97;99598.45;105445;1260;59707;-74
2023/07/06 10:39:42;;;;;;;7.70;7.00;;;;;;;41.29;32.02;99597.14;106593;1257;64188;-70
2023/07/06 10:42:27;;;;;;;8.80;6.60;;;;;;;41.39;31.92;99593.02;106001;1260;70211;-72
2023/07/06 10:44:59;;;;;;;6.90;6.20;;;;;;;41.50;31.72;99590.92;105653;1260;62544;-70
2023/07/06 10:47:29;;;;;;;7.70;7.00;;;;;;;41.65;31.60;99589.92;105560;1258;59656;-75
2023/07/06 10:50:53;;;;;;;6.80;6.20;;;;;;;41.68;31.92;99589.86;105543;1260;59609;-69
2023/07/06 10:53:25;;;;;;;7.30;6.10;;;;;;;41.46;31.72;99584.83;105369;1258;63081;-71
2023/07/06 10:55:58;;;;;;;7.20;6.50;;;;;;;40.99;32.31;99582.64;105550;1260;61628;-70
2023/07/06 10:58:33;;;;;;;7.50;6.80;;;;;;;40.98;32.51;99578.96;105611;1265;62775;-70
2023/07/06 11:01:09;;;;;;;6.30;5.70;;;;;;;41.20;31.80;99578.16;105578;1261;59731;-73
2023/07/06 11:03:37;;;;;;;7.40;6.70;;;;;;;41.42;31.72;99575.63;105465;1260;59725;-70
2023/07/06 11:06:35;;;;;;;6.40;5.80;;;;;;;41.64;31.77;99573.73;106482;1266;64250;-70
2023/07/06 11:09:07;;;;;;;6.80;6.10;;;;;;;41.75;31.57;99569.71;107886;1260;60283;-72
2023/07/06 11:11:59;;;;;;;6.30;5.80;;;;;;;41.73;31.11;99566.48;105826;1260;62696;-69
2023/07/06 11:14:31;;;;;;;6.60;6.10;;;;;;;41.42;31.30;99568.30;105173;1263;59660;-69
2023/07/06 11:17:27;;;;;;;6.80;6.20;;;;;;;41.09;31.63;99566.46;105711;1259;59822;-72
2023/07/06 11:20:24;;;;;;;6.20;5.60;;;;;;;40.83;31.88;99563.09;105509;1260;65198;-71
2023/07/06 11:22:59;;;;;;;7.70;5.80;;;;;;;40.79;32.23;99562.64;105478;1262;60827;-71
2023/07/06 11:25:28;;;;;;;8.70;5.80;;;;;;;40.97;31.96;99561.69;105504;1265;62989;-73
2023/07/06 11:27:59;;;;;;;6.80;6.10;;;;;;;41.15;31.65;99556.34;105434;1259;59719;-70
2023/07/06 11:30:39;;;;;;;5.70;5.20;;;;;;;41.38;31.47;99550.02;105802;1257;59686;-71
2023/07/06 11:33:18;;;;;;;5.90;5.10;;;;;;;41.78;30.61;99546.77;105660;1258;62913;-70